EGTE/EXT METAR and TAF weather

Enter ICAO airport designator
Station Type Date Time Source
EGTE METAR 2019/03/21 01:50 UTC NOAA

EGTE 210150Z 21004KT 9999 BKN015 09/08 Q1034


Station Type Date Time Source
EGTE Decoded METAR 2019/03/21 01:50 UTC NOAA

Exeter Airport, United Kingdom (EGTE) 50-44N 003-25W
Mar 20, 2019 - 09:50 PM EDT / 2019.03.21 0150 UTC
Wind: from the SSW (210 degrees) at 5 MPH (4 KT):0
Visibility: greater than 7 mile(s):0
Sky conditions: mostly cloudy
Temperature: 48 F (9 C)
Dew Point: 46 F (8 C)
Relative Humidity: 93%
Pressure (altimeter): 30.53 in. Hg (1034 hPa)
ob: EGTE 210150Z 21004KT 9999 BKN015 09/08 Q1034
cycle: 2

Station Type Date Time Source
EGTE TAF 2012/04/19 12:15 UTC NOAA

TAF TAF EGTE 191401Z 1912/1924 31016KT 9999 SCT030 SCT035 PROB40
TEMPO 1915/1918 7000 SHRA BKN014

Example: see airport list